sensor_id;sensor_type;location;lat;lon;timestamp;P1;durP1;ratioP1;P2;durP2;ratioP2
79124;SDS011;68527;39.470;-0.376;2023-04-03T00:01:09;1.30;;;0.50;;
79124;SDS011;68527;39.470;-0.376;2023-04-03T00:03:35;1.40;;;0.70;;
79124;SDS011;68527;39.470;-0.376;2023-04-03T00:06:02;1.10;;;0.70;;
79124;SDS011;68527;39.470;-0.376;2023-04-03T00:08:28;1.10;;;0.40;;
79124;SDS011;68527;39.470;-0.376;2023-04-03T00:10:56;1.70;;;0.50;;
79124;SDS011;68527;39.470;-0.376;2023-04-03T00:13:22;1.40;;;0.50;;
79124;SDS011;68527;39.470;-0.376;2023-04-03T00:15:48;1.10;;;0.50;;
79124;SDS011;68527;39.470;-0.376;2023-04-03T00:18:14;0.90;;;0.60;;
79124;SDS011;68527;39.470;-0.376;2023-04-03T00:20:40;1.80;;;0.40;;
79124;SDS011;68527;39.470;-0.376;2023-04-03T00:23:06;1.80;;;0.70;;
79124;SDS011;68527;39.470;-0.376;2023-04-03T00:25:32;1.70;;;0.60;;
79124;SDS011;68527;39.470;-0.376;2023-04-03T00:27:57;0.70;;;0.40;;
79124;SDS011;68527;39.470;-0.376;2023-04-03T00:30:23;1.00;;;0.40;;
79124;SDS011;68527;39.470;-0.376;2023-04-03T00:35:15;1.80;;;0.50;;
79124;SDS011;68527;39.470;-0.376;2023-04-03T00:37:41;1.30;;;0.60;;
79124;SDS011;68527;39.470;-0.376;2023-04-03T00:40:08;2.50;;;0.70;;
79124;SDS011;68527;39.470;-0.376;2023-04-03T00:42:35;1.10;;;0.40;;
79124;SDS011;68527;39.470;-0.376;2023-04-03T00:47:27;1.50;;;0.50;;
79124;SDS011;68527;39.470;-0.376;2023-04-03T00:49:53;1.40;;;0.40;;
79124;SDS011;68527;39.470;-0.376;2023-04-03T00:52:20;0.60;;;0.40;;
79124;SDS011;68527;39.470;-0.376;2023-04-03T00:54:50;1.90;;;0.60;;
79124;SDS011;68527;39.470;-0.376;2023-04-03T00:57:17;1.30;;;0.40;;
79124;SDS011;68527;39.470;-0.376;2023-04-03T00:59:47;1.70;;;0.70;;
79124;SDS011;68527;39.470;-0.376;2023-04-03T01:02:15;2.00;;;0.40;;
79124;SDS011;68527;39.470;-0.376;2023-04-03T01:04:42;0.90;;;0.50;;
79124;SDS011;68527;39.470;-0.376;2023-04-03T01:07:10;1.00;;;0.40;;
79124;SDS011;68527;39.470;-0.376;2023-04-03T01:09:38;1.20;;;0.30;;
79124;SDS011;68527;39.470;-0.376;2023-04-03T01:12:14;0.90;;;0.30;;
79124;SDS011;68527;39.470;-0.376;2023-04-03T01:14:41;1.10;;;0.30;;
79124;SDS011;68527;39.470;-0.376;2023-04-03T01:22:42;0.80;;;0.40;;
79124;SDS011;68527;39.470;-0.376;2023-04-03T01:25:45;1.00;;;0.50;;
79124;SDS011;68527;39.470;-0.376;2023-04-03T01:28:15;1.00;;;0.40;;
79124;SDS011;68527;39.470;-0.376;2023-04-03T01:33:28;1.40;;;0.50;;
79124;SDS011;68527;39.470;-0.376;2023-04-03T01:35:54;1.50;;;0.30;;
79124;SDS011;68527;39.470;-0.376;2023-04-03T01:38:20;1.40;;;0.70;;
79124;SDS011;68527;39.470;-0.376;2023-04-03T01:40:45;0.70;;;0.30;;
79124;SDS011;68527;39.470;-0.376;2023-04-03T01:45:36;1.40;;;0.40;;
79124;SDS011;68527;39.470;-0.376;2023-04-03T01:50:27;0.80;;;0.40;;
79124;SDS011;68527;39.470;-0.376;2023-04-03T01:55:18;0.60;;;0.40;;
79124;SDS011;68527;39.470;-0.376;2023-04-03T02:00:10;1.20;;;0.30;;
79124;SDS011;68527;39.470;-0.376;2023-04-03T02:02:36;1.40;;;0.40;;
79124;SDS011;68527;39.470;-0.376;2023-04-03T02:05:01;1.20;;;0.50;;
79124;SDS011;68527;39.470;-0.376;2023-04-03T02:07:27;1.30;;;0.40;;
79124;SDS011;68527;39.470;-0.376;2023-04-03T02:12:18;0.70;;;0.40;;
79124;SDS011;68527;39.470;-0.376;2023-04-03T02:14:44;0.70;;;0.20;;
79124;SDS011;68527;39.470;-0.376;2023-04-03T02:17:09;0.80;;;0.40;;
79124;SDS011;68527;39.470;-0.376;2023-04-03T02:22:04;2.90;;;0.50;;
79124;SDS011;68527;39.470;-0.376;2023-04-03T02:24:30;0.50;;;0.30;;
79124;SDS011;68527;39.470;-0.376;2023-04-03T02:26:56;1.20;;;0.40;;
79124;SDS011;68527;39.470;-0.376;2023-04-03T02:29:21;0.70;;;0.30;;
79124;SDS011;68527;39.470;-0.376;2023-04-03T02:31:48;0.80;;;0.30;;
79124;SDS011;68527;39.470;-0.376;2023-04-03T02:34:14;1.50;;;0.50;;
79124;SDS011;68527;39.470;-0.376;2023-04-03T02:36:40;1.30;;;0.40;;
79124;SDS011;68527;39.470;-0.376;2023-04-03T02:39:05;0.70;;;0.50;;
79124;SDS011;68527;39.470;-0.376;2023-04-03T02:41:31;0.90;;;0.40;;
79124;SDS011;68527;39.470;-0.376;2023-04-03T02:44:03;2.00;;;0.40;;
79124;SDS011;68527;39.470;-0.376;2023-04-03T02:46:29;0.60;;;0.30;;
79124;SDS011;68527;39.470;-0.376;2023-04-03T02:48:55;0.60;;;0.30;;
79124;SDS011;68527;39.470;-0.376;2023-04-03T02:51:21;1.60;;;0.60;;
79124;SDS011;68527;39.470;-0.376;2023-04-03T02:53:48;0.50;;;0.30;;
79124;SDS011;68527;39.470;-0.376;2023-04-03T02:56:14;1.50;;;0.30;;
79124;SDS011;68527;39.470;-0.376;2023-04-03T02:58:40;0.60;;;0.20;;
79124;SDS011;68527;39.470;-0.376;2023-04-03T03:01:06;0.90;;;0.40;;
79124;SDS011;68527;39.470;-0.376;2023-04-03T03:03:31;0.40;;;0.20;;
79124;SDS011;68527;39.470;-0.376;2023-04-03T03:06:07;1.10;;;0.50;;
79124;SDS011;68527;39.470;-0.376;2023-04-03T03:08:35;0.50;;;0.20;;
79124;SDS011;68527;39.470;-0.376;2023-04-03T03:13:26;0.90;;;0.40;;
79124;SDS011;68527;39.470;-0.376;2023-04-03T03:18:16;0.80;;;0.30;;
79124;SDS011;68527;39.470;-0.376;2023-04-03T03:23:08;1.70;;;0.40;;
79124;SDS011;68527;39.470;-0.376;2023-04-03T03:25:33;0.80;;;0.30;;
79124;SDS011;68527;39.470;-0.376;2023-04-03T03:28:03;1.20;;;0.30;;
79124;SDS011;68527;39.470;-0.376;2023-04-03T03:30:29;1.00;;;0.30;;
79124;SDS011;68527;39.470;-0.376;2023-04-03T03:32:54;0.60;;;0.20;;
79124;SDS011;68527;39.470;-0.376;2023-04-03T03:35:20;1.00;;;0.30;;
79124;SDS011;68527;39.470;-0.376;2023-04-03T03:40:11;0.80;;;0.40;;
79124;SDS011;68527;39.470;-0.376;2023-04-03T03:42:38;0.70;;;0.20;;
79124;SDS011;68527;39.470;-0.376;2023-04-03T03:45:04;0.70;;;0.30;;
79124;SDS011;68527;39.470;-0.376;2023-04-03T03:47:30;0.50;;;0.20;;
79124;SDS011;68527;39.470;-0.376;2023-04-03T03:49:55;2.60;;;0.40;;
79124;SDS011;68527;39.470;-0.376;2023-04-03T03:52:21;1.30;;;0.40;;
79124;SDS011;68527;39.470;-0.376;2023-04-03T03:54:46;2.00;;;0.40;;
79124;SDS011;68527;39.470;-0.376;2023-04-03T03:57:12;0.90;;;0.40;;
79124;SDS011;68527;39.470;-0.376;2023-04-03T03:59:37;1.50;;;0.30;;
79124;SDS011;68527;39.470;-0.376;2023-04-03T04:02:05;0.70;;;0.30;;
79124;SDS011;68527;39.470;-0.376;2023-04-03T04:04:31;1.20;;;0.40;;
79124;SDS011;68527;39.470;-0.376;2023-04-03T04:06:56;0.60;;;0.50;;
79124;SDS011;68527;39.470;-0.376;2023-04-03T04:11:47;0.70;;;0.30;;
79124;SDS011;68527;39.470;-0.376;2023-04-03T04:14:13;1.00;;;0.30;;
79124;SDS011;68527;39.470;-0.376;2023-04-03T04:16:38;0.60;;;0.30;;
79124;SDS011;68527;39.470;-0.376;2023-04-03T04:19:04;1.40;;;0.30;;
79124;SDS011;68527;39.470;-0.376;2023-04-03T04:21:30;1.40;;;0.30;;
79124;SDS011;68527;39.470;-0.376;2023-04-03T04:23:56;1.30;;;0.30;;
79124;SDS011;68527;39.470;-0.376;2023-04-03T04:28:47;1.70;;;0.40;;
79124;SDS011;68527;39.470;-0.376;2023-04-03T04:31:12;1.00;;;0.40;;
79124;SDS011;68527;39.470;-0.376;2023-04-03T04:33:38;0.90;;;0.40;;
79124;SDS011;68527;39.470;-0.376;2023-04-03T04:36:04;1.20;;;0.40;;
79124;SDS011;68527;39.470;-0.376;2023-04-03T04:38:29;1.00;;;0.50;;
79124;SDS011;68527;39.470;-0.376;2023-04-03T04:43:21;1.00;;;0.40;;
79124;SDS011;68527;39.470;-0.376;2023-04-03T04:48:12;1.10;;;0.40;;
79124;SDS011;68527;39.470;-0.376;2023-04-03T04:53:03;0.80;;;0.50;;
79124;SDS011;68527;39.470;-0.376;2023-04-03T04:55:29;0.40;;;0.20;;
79124;SDS011;68527;39.470;-0.376;2023-04-03T04:57:55;1.10;;;0.30;;
79124;SDS011;68527;39.470;-0.376;2023-04-03T05:02:46;1.50;;;0.20;;
79124;SDS011;68527;39.470;-0.376;2023-04-03T05:07:37;0.40;;;0.20;;
79124;SDS011;68527;39.470;-0.376;2023-04-03T05:10:03;1.40;;;0.50;;
79124;SDS011;68527;39.470;-0.376;2023-04-03T05:12:29;0.50;;;0.30;;
79124;SDS011;68527;39.470;-0.376;2023-04-03T05:14:55;1.40;;;0.30;;
79124;SDS011;68527;39.470;-0.376;2023-04-03T05:19:46;0.80;;;0.30;;
79124;SDS011;68527;39.470;-0.376;2023-04-03T05:22:11;1.40;;;0.50;;
79124;SDS011;68527;39.470;-0.376;2023-04-03T05:27:03;3.40;;;0.70;;
79124;SDS011;68527;39.470;-0.376;2023-04-03T05:29:29;3.30;;;0.40;;
79124;SDS011;68527;39.470;-0.376;2023-04-03T05:31:54;5.90;;;0.50;;
79124;SDS011;68527;39.470;-0.376;2023-04-03T05:34:20;2.60;;;0.50;;
79124;SDS011;68527;39.470;-0.376;2023-04-03T05:36:46;3.60;;;0.60;;
79124;SDS011;68527;39.470;-0.376;2023-04-03T05:39:11;4.20;;;0.80;;
79124;SDS011;68527;39.470;-0.376;2023-04-03T05:41:37;8.30;;;0.80;;
79124;SDS011;68527;39.470;-0.376;2023-04-03T05:44:02;7.30;;;1.70;;
79124;SDS011;68527;39.470;-0.376;2023-04-03T05:46:28;5.00;;;0.60;;
79124;SDS011;68527;39.470;-0.376;2023-04-03T05:48:55;5.90;;;1.00;;
79124;SDS011;68527;39.470;-0.376;2023-04-03T05:51:24;4.10;;;0.80;;
79124;SDS011;68527;39.470;-0.376;2023-04-03T05:54:01;4.50;;;0.70;;
79124;SDS011;68527;39.470;-0.376;2023-04-03T05:56:31;5.50;;;0.80;;
79124;SDS011;68527;39.470;-0.376;2023-04-03T05:58:56;3.40;;;0.90;;
79124;SDS011;68527;39.470;-0.376;2023-04-03T06:01:22;5.20;;;1.10;;
79124;SDS011;68527;39.470;-0.376;2023-04-03T06:03:48;6.50;;;1.10;;
79124;SDS011;68527;39.470;-0.376;2023-04-03T06:06:14;5.40;;;1.10;;
79124;SDS011;68527;39.470;-0.376;2023-04-03T06:08:40;5.60;;;1.60;;
79124;SDS011;68527;39.470;-0.376;2023-04-03T06:13:33;5.70;;;1.00;;
79124;SDS011;68527;39.470;-0.376;2023-04-03T06:16:00;3.60;;;1.00;;
79124;SDS011;68527;39.470;-0.376;2023-04-03T06:18:26;7.50;;;1.10;;
79124;SDS011;68527;39.470;-0.376;2023-04-03T06:20:51;6.20;;;1.90;;
79124;SDS011;68527;39.470;-0.376;2023-04-03T06:23:17;5.20;;;1.20;;
79124;SDS011;68527;39.470;-0.376;2023-04-03T06:25:43;7.00;;;1.20;;
79124;SDS011;68527;39.470;-0.376;2023-04-03T06:28:08;5.20;;;1.10;;
79124;SDS011;68527;39.470;-0.376;2023-04-03T06:30:35;3.90;;;1.80;;
79124;SDS011;68527;39.470;-0.376;2023-04-03T06:33:02;7.70;;;1.10;;
79124;SDS011;68527;39.470;-0.376;2023-04-03T06:35:28;3.40;;;1.20;;
79124;SDS011;68527;39.470;-0.376;2023-04-03T06:37:55;5.50;;;1.00;;
79124;SDS011;68527;39.470;-0.376;2023-04-03T06:40:22;7.00;;;1.30;;
79124;SDS011;68527;39.470;-0.376;2023-04-03T06:42:48;8.30;;;1.50;;
79124;SDS011;68527;39.470;-0.376;2023-04-03T06:45:14;6.50;;;1.40;;
79124;SDS011;68527;39.470;-0.376;2023-04-03T06:47:41;7.00;;;1.20;;
79124;SDS011;68527;39.470;-0.376;2023-04-03T06:50:08;6.60;;;1.40;;
79124;SDS011;68527;39.470;-0.376;2023-04-03T06:52:36;9.20;;;1.50;;
79124;SDS011;68527;39.470;-0.376;2023-04-03T06:55:02;7.30;;;1.10;;
79124;SDS011;68527;39.470;-0.376;2023-04-03T06:57:29;10.60;;;1.30;;
79124;SDS011;68527;39.470;-0.376;2023-04-03T06:59:55;5.20;;;1.20;;
79124;SDS011;68527;39.470;-0.376;2023-04-03T07:02:21;16.70;;;1.80;;
79124;SDS011;68527;39.470;-0.376;2023-04-03T07:04:46;5.90;;;1.20;;
79124;SDS011;68527;39.470;-0.376;2023-04-03T07:09:37;17.80;;;1.50;;
79124;SDS011;68527;39.470;-0.376;2023-04-03T07:12:03;9.90;;;1.40;;
79124;SDS011;68527;39.470;-0.376;2023-04-03T07:16:54;11.30;;;1.70;;
79124;SDS011;68527;39.470;-0.376;2023-04-03T07:21:46;4.20;;;1.30;;
79124;SDS011;68527;39.470;-0.376;2023-04-03T07:24:12;10.30;;;1.80;;
79124;SDS011;68527;39.470;-0.376;2023-04-03T07:29:03;9.80;;;1.60;;
79124;SDS011;68527;39.470;-0.376;2023-04-03T07:31:29;5.50;;;1.70;;
79124;SDS011;68527;39.470;-0.376;2023-04-03T07:33:54;11.80;;;2.10;;
79124;SDS011;68527;39.470;-0.376;2023-04-03T07:36:21;5.70;;;1.30;;
79124;SDS011;68527;39.470;-0.376;2023-04-03T07:38:47;6.40;;;1.00;;
79124;SDS011;68527;39.470;-0.376;2023-04-03T07:41:16;8.30;;;1.20;;
79124;SDS011;68527;39.470;-0.376;2023-04-03T07:43:43;4.70;;;1.40;;
79124;SDS011;68527;39.470;-0.376;2023-04-03T07:46:10;7.70;;;1.20;;
79124;SDS011;68527;39.470;-0.376;2023-04-03T07:48:35;7.20;;;1.40;;
79124;SDS011;68527;39.470;-0.376;2023-04-03T07:51:02;7.80;;;1.20;;
79124;SDS011;68527;39.470;-0.376;2023-04-03T07:53:29;7.90;;;1.40;;
79124;SDS011;68527;39.470;-0.376;2023-04-03T07:55:56;5.90;;;1.40;;
79124;SDS011;68527;39.470;-0.376;2023-04-03T07:58:22;6.00;;;1.30;;
79124;SDS011;68527;39.470;-0.376;2023-04-03T08:00:48;6.60;;;1.50;;
79124;SDS011;68527;39.470;-0.376;2023-04-03T08:03:14;7.70;;;1.80;;
79124;SDS011;68527;39.470;-0.376;2023-04-03T08:05:42;3.90;;;1.20;;
79124;SDS011;68527;39.470;-0.376;2023-04-03T08:08:09;4.90;;;1.00;;
79124;SDS011;68527;39.470;-0.376;2023-04-03T08:10:36;5.70;;;0.90;;
79124;SDS011;68527;39.470;-0.376;2023-04-03T08:13:02;5.30;;;1.40;;
79124;SDS011;68527;39.470;-0.376;2023-04-03T08:15:29;8.70;;;1.40;;
79124;SDS011;68527;39.470;-0.376;2023-04-03T08:17:55;3.30;;;1.20;;
79124;SDS011;68527;39.470;-0.376;2023-04-03T08:20:20;3.30;;;1.00;;
79124;SDS011;68527;39.470;-0.376;2023-04-03T08:22:46;4.00;;;1.30;;
79124;SDS011;68527;39.470;-0.376;2023-04-03T08:25:12;4.90;;;1.20;;
79124;SDS011;68527;39.470;-0.376;2023-04-03T08:27:38;4.80;;;1.40;;
79124;SDS011;68527;39.470;-0.376;2023-04-03T08:30:04;4.60;;;1.40;;
79124;SDS011;68527;39.470;-0.376;2023-04-03T08:32:30;4.10;;;1.10;;
79124;SDS011;68527;39.470;-0.376;2023-04-03T08:37:21;6.70;;;1.40;;
79124;SDS011;68527;39.470;-0.376;2023-04-03T08:39:47;7.20;;;1.40;;
79124;SDS011;68527;39.470;-0.376;2023-04-03T08:45:18;3.60;;;1.00;;
79124;SDS011;68527;39.470;-0.376;2023-04-03T08:48:05;6.30;;;1.10;;
79124;SDS011;68527;39.470;-0.376;2023-04-03T08:50:40;5.30;;;1.30;;
79124;SDS011;68527;39.470;-0.376;2023-04-03T08:53:14;4.20;;;1.00;;
79124;SDS011;68527;39.470;-0.376;2023-04-03T08:55:46;4.90;;;1.00;;
79124;SDS011;68527;39.470;-0.376;2023-04-03T08:58:21;3.60;;;1.30;;
79124;SDS011;68527;39.470;-0.376;2023-04-03T09:03:36;3.90;;;0.80;;
79124;SDS011;68527;39.470;-0.376;2023-04-03T09:06:04;2.90;;;0.80;;
79124;SDS011;68527;39.470;-0.376;2023-04-03T09:08:40;7.50;;;1.40;;
79124;SDS011;68527;39.470;-0.376;2023-04-03T09:14:02;5.70;;;1.30;;
79124;SDS011;68527;39.470;-0.376;2023-04-03T09:21:56;3.30;;;0.90;;
79124;SDS011;68527;39.470;-0.376;2023-04-03T09:24:28;3.60;;;0.80;;
79124;SDS011;68527;39.470;-0.376;2023-04-03T09:27:08;5.50;;;1.10;;
79124;SDS011;68527;39.470;-0.376;2023-04-03T09:29:38;3.00;;;0.80;;
79124;SDS011;68527;39.470;-0.376;2023-04-03T09:32:19;3.60;;;0.90;;
79124;SDS011;68527;39.470;-0.376;2023-04-03T09:34:49;2.70;;;0.70;;
79124;SDS011;68527;39.470;-0.376;2023-04-03T09:40:51;3.80;;;1.00;;
79124;SDS011;68527;39.470;-0.376;2023-04-03T09:43:19;3.60;;;0.80;;
79124;SDS011;68527;39.470;-0.376;2023-04-03T09:45:50;4.20;;;1.40;;
79124;SDS011;68527;39.470;-0.376;2023-04-03T09:48:17;3.30;;;1.00;;
79124;SDS011;68527;39.470;-0.376;2023-04-03T09:53:40;3.90;;;1.00;;
79124;SDS011;68527;39.470;-0.376;2023-04-03T09:58:43;3.20;;;0.80;;
79124;SDS011;68527;39.470;-0.376;2023-04-03T10:01:31;3.10;;;0.80;;
79124;SDS011;68527;39.470;-0.376;2023-04-03T10:06:45;2.60;;;0.90;;
79124;SDS011;68527;39.470;-0.376;2023-04-03T10:12:01;4.00;;;1.10;;
79124;SDS011;68527;39.470;-0.376;2023-04-03T10:14:30;3.70;;;1.00;;
79124;SDS011;68527;39.470;-0.376;2023-04-03T10:16:59;3.70;;;0.80;;
79124;SDS011;68527;39.470;-0.376;2023-04-03T10:24:57;2.40;;;0.60;;
79124;SDS011;68527;39.470;-0.376;2023-04-03T10:28:03;1.80;;;0.80;;
79124;SDS011;68527;39.470;-0.376;2023-04-03T10:30:27;1.20;;;0.60;;
79124;SDS011;68527;39.470;-0.376;2023-04-03T10:38:23;3.10;;;0.80;;
79124;SDS011;68527;39.470;-0.376;2023-04-03T10:47:11;2.40;;;0.90;;
79124;SDS011;68527;39.470;-0.376;2023-04-03T10:52:30;2.40;;;0.60;;
79124;SDS011;68527;39.470;-0.376;2023-04-03T10:55:51;2.10;;;0.60;;
79124;SDS011;68527;39.470;-0.376;2023-04-03T11:01:44;1.60;;;1.10;;
79124;SDS011;68527;39.470;-0.376;2023-04-03T11:04:12;2.70;;;0.70;;
79124;SDS011;68527;39.470;-0.376;2023-04-03T11:06:47;1.80;;;0.70;;
79124;SDS011;68527;39.470;-0.376;2023-04-03T11:09:19;1.90;;;0.60;;
79124;SDS011;68527;39.470;-0.376;2023-04-03T11:11:49;2.10;;;0.60;;
79124;SDS011;68527;39.470;-0.376;2023-04-03T11:14:29;2.00;;;0.70;;
79124;SDS011;68527;39.470;-0.376;2023-04-03T11:17:05;2.10;;;0.70;;
79124;SDS011;68527;39.470;-0.376;2023-04-03T11:22:32;3.90;;;0.80;;
79124;SDS011;68527;39.470;-0.376;2023-04-03T11:34:08;3.20;;;0.90;;
79124;SDS011;68527;39.470;-0.376;2023-04-03T11:36:23;2.70;;;1.00;;
79124;SDS011;68527;39.470;-0.376;2023-04-03T11:38:52;2.30;;;0.70;;
79124;SDS011;68527;39.470;-0.376;2023-04-03T11:41:25;2.70;;;0.70;;
79124;SDS011;68527;39.470;-0.376;2023-04-03T11:43:58;3.40;;;0.80;;
79124;SDS011;68527;39.470;-0.376;2023-04-03T12:13:39;1.60;;;0.80;;
79124;SDS011;68527;39.470;-0.376;2023-04-03T12:43:02;1.10;;;0.60;;
79124;SDS011;68527;39.470;-0.376;2023-04-03T12:45:41;2.00;;;0.70;;
79124;SDS011;68527;39.470;-0.376;2023-04-03T12:48:16;2.60;;;0.80;;
79124;SDS011;68527;39.470;-0.376;2023-04-03T12:50:45;1.50;;;0.60;;
79124;SDS011;68527;39.470;-0.376;2023-04-03T12:55:43;2.80;;;0.70;;
79124;SDS011;68527;39.470;-0.376;2023-04-03T12:58:13;1.70;;;0.70;;
79124;SDS011;68527;39.470;-0.376;2023-04-03T13:00:44;1.20;;;0.70;;
79124;SDS011;68527;39.470;-0.376;2023-04-03T13:03:23;1.90;;;0.80;;
79124;SDS011;68527;39.470;-0.376;2023-04-03T13:05:52;1.70;;;0.60;;
79124;SDS011;68527;39.470;-0.376;2023-04-03T13:08:19;2.50;;;0.70;;
79124;SDS011;68527;39.470;-0.376;2023-04-03T13:10:49;1.80;;;0.80;;
79124;SDS011;68527;39.470;-0.376;2023-04-03T13:13:17;1.70;;;1.00;;
79124;SDS011;68527;39.470;-0.376;2023-04-03T13:15:44;1.20;;;0.80;;
79124;SDS011;68527;39.470;-0.376;2023-04-03T13:18:23;2.70;;;0.60;;
79124;SDS011;68527;39.470;-0.376;2023-04-03T13:21:05;1.60;;;0.60;;
79124;SDS011;68527;39.470;-0.376;2023-04-03T13:23:32;2.20;;;0.70;;
79124;SDS011;68527;39.470;-0.376;2023-04-03T13:26:00;1.80;;;0.70;;
79124;SDS011;68527;39.470;-0.376;2023-04-03T13:28:29;1.30;;;0.50;;
79124;SDS011;68527;39.470;-0.376;2023-04-03T13:31:08;1.80;;;0.80;;
79124;SDS011;68527;39.470;-0.376;2023-04-03T13:36:43;1.40;;;0.50;;
79124;SDS011;68527;39.470;-0.376;2023-04-03T13:39:34;3.30;;;0.50;;
79124;SDS011;68527;39.470;-0.376;2023-04-03T13:42:14;1.80;;;0.80;;
79124;SDS011;68527;39.470;-0.376;2023-04-03T13:44:42;2.00;;;0.70;;
79124;SDS011;68527;39.470;-0.376;2023-04-03T13:49:38;1.80;;;0.70;;
79124;SDS011;68527;39.470;-0.376;2023-04-03T13:52:26;0.90;;;0.60;;
79124;SDS011;68527;39.470;-0.376;2023-04-03T13:55:00;2.50;;;0.60;;
79124;SDS011;68527;39.470;-0.376;2023-04-03T13:57:27;1.40;;;0.40;;
79124;SDS011;68527;39.470;-0.376;2023-04-03T13:59:53;3.30;;;0.80;;
79124;SDS011;68527;39.470;-0.376;2023-04-03T14:04:50;2.10;;;0.70;;
79124;SDS011;68527;39.470;-0.376;2023-04-03T14:07:21;1.00;;;0.50;;
79124;SDS011;68527;39.470;-0.376;2023-04-03T14:09:47;1.00;;;0.40;;
79124;SDS011;68527;39.470;-0.376;2023-04-03T14:12:18;2.10;;;0.40;;
79124;SDS011;68527;39.470;-0.376;2023-04-03T14:15:03;1.80;;;0.60;;
79124;SDS011;68527;39.470;-0.376;2023-04-03T14:17:30;2.50;;;0.70;;
79124;SDS011;68527;39.470;-0.376;2023-04-03T14:19:57;1.20;;;0.70;;
79124;SDS011;68527;39.470;-0.376;2023-04-03T14:22:27;1.90;;;0.40;;
79124;SDS011;68527;39.470;-0.376;2023-04-03T14:24:55;1.00;;;0.50;;
79124;SDS011;68527;39.470;-0.376;2023-04-03T14:27:23;1.60;;;0.40;;
79124;SDS011;68527;39.470;-0.376;2023-04-03T14:29:51;1.30;;;0.40;;
79124;SDS011;68527;39.470;-0.376;2023-04-03T14:32:19;2.60;;;0.60;;
79124;SDS011;68527;39.470;-0.376;2023-04-03T14:34:46;0.80;;;0.40;;
79124;SDS011;68527;39.470;-0.376;2023-04-03T14:37:13;1.70;;;0.50;;
79124;SDS011;68527;39.470;-0.376;2023-04-03T14:39:41;1.50;;;0.40;;
79124;SDS011;68527;39.470;-0.376;2023-04-03T14:42:11;1.40;;;0.50;;
79124;SDS011;68527;39.470;-0.376;2023-04-03T14:44:38;2.50;;;0.60;;
79124;SDS011;68527;39.470;-0.376;2023-04-03T14:49:29;1.30;;;0.40;;
79124;SDS011;68527;39.470;-0.376;2023-04-03T14:51:56;5.30;;;0.60;;
79124;SDS011;68527;39.470;-0.376;2023-04-03T14:54:22;1.70;;;0.50;;
79124;SDS011;68527;39.470;-0.376;2023-04-03T14:56:52;2.40;;;0.50;;
79124;SDS011;68527;39.470;-0.376;2023-04-03T14:59:20;4.40;;;0.60;;
79124;SDS011;68527;39.470;-0.376;2023-04-03T15:01:47;1.70;;;0.50;;
79124;SDS011;68527;39.470;-0.376;2023-04-03T15:04:13;4.90;;;0.60;;
79124;SDS011;68527;39.470;-0.376;2023-04-03T15:06:40;2.60;;;0.80;;
79124;SDS011;68527;39.470;-0.376;2023-04-03T15:09:26;2.90;;;0.70;;
79124;SDS011;68527;39.470;-0.376;2023-04-03T15:11:53;1.20;;;0.60;;
79124;SDS011;68527;39.470;-0.376;2023-04-03T15:14:19;2.50;;;0.80;;
79124;SDS011;68527;39.470;-0.376;2023-04-03T15:16:45;1.30;;;0.60;;
79124;SDS011;68527;39.470;-0.376;2023-04-03T15:19:11;1.60;;;0.60;;
79124;SDS011;68527;39.470;-0.376;2023-04-03T15:21:37;4.00;;;0.60;;
79124;SDS011;68527;39.470;-0.376;2023-04-03T15:24:03;5.20;;;1.00;;
79124;SDS011;68527;39.470;-0.376;2023-04-03T15:26:30;2.60;;;0.60;;
79124;SDS011;68527;39.470;-0.376;2023-04-03T15:28:56;3.60;;;0.70;;
79124;SDS011;68527;39.470;-0.376;2023-04-03T15:31:21;3.40;;;0.70;;
79124;SDS011;68527;39.470;-0.376;2023-04-03T15:36:12;2.80;;;0.70;;
79124;SDS011;68527;39.470;-0.376;2023-04-03T15:38:38;3.70;;;0.60;;
79124;SDS011;68527;39.470;-0.376;2023-04-03T15:41:03;2.30;;;0.80;;
79124;SDS011;68527;39.470;-0.376;2023-04-03T15:43:29;1.90;;;0.60;;
79124;SDS011;68527;39.470;-0.376;2023-04-03T15:45:56;2.20;;;0.50;;
79124;SDS011;68527;39.470;-0.376;2023-04-03T15:48:22;2.30;;;0.80;;
79124;SDS011;68527;39.470;-0.376;2023-04-03T15:53:14;1.50;;;0.60;;
79124;SDS011;68527;39.470;-0.376;2023-04-03T15:58:04;5.70;;;0.80;;
79124;SDS011;68527;39.470;-0.376;2023-04-03T16:00:30;3.10;;;0.70;;
79124;SDS011;68527;39.470;-0.376;2023-04-03T16:03:00;5.20;;;0.70;;
79124;SDS011;68527;39.470;-0.376;2023-04-03T16:05:30;4.70;;;0.60;;
79124;SDS011;68527;39.470;-0.376;2023-04-03T16:07:56;5.00;;;0.90;;
79124;SDS011;68527;39.470;-0.376;2023-04-03T16:10:23;3.30;;;0.50;;
79124;SDS011;68527;39.470;-0.376;2023-04-03T16:12:48;1.90;;;0.60;;
79124;SDS011;68527;39.470;-0.376;2023-04-03T16:15:14;2.30;;;0.70;;
79124;SDS011;68527;39.470;-0.376;2023-04-03T16:20:06;3.50;;;0.90;;
79124;SDS011;68527;39.470;-0.376;2023-04-03T16:22:33;6.30;;;0.90;;
79124;SDS011;68527;39.470;-0.376;2023-04-03T16:24:59;2.80;;;0.60;;
79124;SDS011;68527;39.470;-0.376;2023-04-03T16:27:24;3.40;;;0.60;;
79124;SDS011;68527;39.470;-0.376;2023-04-03T16:29:55;3.50;;;0.50;;
79124;SDS011;68527;39.470;-0.376;2023-04-03T16:32:21;1.90;;;0.80;;
79124;SDS011;68527;39.470;-0.376;2023-04-03T16:34:47;4.70;;;1.00;;
79124;SDS011;68527;39.470;-0.376;2023-04-03T16:37:13;3.50;;;0.80;;
79124;SDS011;68527;39.470;-0.376;2023-04-03T16:39:40;3.80;;;0.80;;
79124;SDS011;68527;39.470;-0.376;2023-04-03T16:42:05;5.60;;;1.10;;
79124;SDS011;68527;39.470;-0.376;2023-04-03T16:44:31;5.00;;;0.90;;
79124;SDS011;68527;39.470;-0.376;2023-04-03T16:49:22;2.50;;;0.80;;
79124;SDS011;68527;39.470;-0.376;2023-04-03T16:51:48;4.40;;;0.90;;
79124;SDS011;68527;39.470;-0.376;2023-04-03T16:54:14;2.60;;;1.20;;
79124;SDS011;68527;39.470;-0.376;2023-04-03T16:56:40;3.90;;;0.90;;
79124;SDS011;68527;39.470;-0.376;2023-04-03T16:59:06;4.60;;;1.10;;
79124;SDS011;68527;39.470;-0.376;2023-04-03T17:01:32;3.70;;;1.10;;
79124;SDS011;68527;39.470;-0.376;2023-04-03T17:06:23;2.30;;;1.00;;
79124;SDS011;68527;39.470;-0.376;2023-04-03T17:11:15;2.90;;;1.10;;
79124;SDS011;68527;39.470;-0.376;2023-04-03T17:13:41;3.00;;;1.10;;
79124;SDS011;68527;39.470;-0.376;2023-04-03T17:16:07;2.20;;;1.00;;
79124;SDS011;68527;39.470;-0.376;2023-04-03T17:18:34;5.60;;;1.60;;
79124;SDS011;68527;39.470;-0.376;2023-04-03T17:21:00;3.60;;;1.30;;
79124;SDS011;68527;39.470;-0.376;2023-04-03T17:23:26;3.40;;;1.20;;
79124;SDS011;68527;39.470;-0.376;2023-04-03T17:25:56;4.20;;;1.20;;
79124;SDS011;68527;39.470;-0.376;2023-04-03T17:28:22;3.00;;;1.70;;
79124;SDS011;68527;39.470;-0.376;2023-04-03T17:30:56;3.10;;;1.20;;
79124;SDS011;68527;39.470;-0.376;2023-04-03T17:33:23;6.50;;;1.40;;
79124;SDS011;68527;39.470;-0.376;2023-04-03T17:35:49;4.60;;;1.20;;
79124;SDS011;68527;39.470;-0.376;2023-04-03T17:38:15;4.20;;;1.20;;
79124;SDS011;68527;39.470;-0.376;2023-04-03T17:40:41;4.10;;;1.40;;
79124;SDS011;68527;39.470;-0.376;2023-04-03T17:43:09;3.90;;;1.30;;
79124;SDS011;68527;39.470;-0.376;2023-04-03T17:45:35;4.30;;;1.30;;
79124;SDS011;68527;39.470;-0.376;2023-04-03T17:48:01;4.40;;;1.00;;
79124;SDS011;68527;39.470;-0.376;2023-04-03T17:50:26;4.40;;;1.40;;
79124;SDS011;68527;39.470;-0.376;2023-04-03T17:52:52;3.90;;;1.20;;
79124;SDS011;68527;39.470;-0.376;2023-04-03T17:55:20;3.70;;;1.10;;
79124;SDS011;68527;39.470;-0.376;2023-04-03T17:57:45;2.70;;;1.30;;
79124;SDS011;68527;39.470;-0.376;2023-04-03T18:00:11;3.50;;;1.40;;
79124;SDS011;68527;39.470;-0.376;2023-04-03T18:02:37;5.00;;;1.30;;
79124;SDS011;68527;39.470;-0.376;2023-04-03T18:05:03;3.10;;;1.40;;
79124;SDS011;68527;39.470;-0.376;2023-04-03T18:07:29;3.60;;;1.10;;
79124;SDS011;68527;39.470;-0.376;2023-04-03T18:09:55;3.60;;;1.20;;
79124;SDS011;68527;39.470;-0.376;2023-04-03T18:12:21;2.40;;;1.10;;
79124;SDS011;68527;39.470;-0.376;2023-04-03T18:14:47;4.40;;;1.70;;
79124;SDS011;68527;39.470;-0.376;2023-04-03T18:17:13;4.00;;;1.00;;
79124;SDS011;68527;39.470;-0.376;2023-04-03T18:19:39;2.50;;;1.00;;